sensor_id;sensor_type;location;lat;lon;timestamp;temperature
37772;DS18B20;23610;59.380;24.642;2022-07-24T00:00:54;16.75
37772;DS18B20;23610;59.380;24.642;2022-07-24T00:05:58;16.88
37772;DS18B20;23610;59.380;24.642;2022-07-24T00:11:03;16.81
37772;DS18B20;23610;59.380;24.642;2022-07-24T00:16:08;16.81
37772;DS18B20;23610;59.380;24.642;2022-07-24T00:21:11;16.81
37772;DS18B20;23610;59.380;24.642;2022-07-24T00:26:14;16.75
37772;DS18B20;23610;59.380;24.642;2022-07-24T00:31:19;16.81
37772;DS18B20;23610;59.380;24.642;2022-07-24T00:36:22;16.75
37772;DS18B20;23610;59.380;24.642;2022-07-24T00:41:25;16.75
37772;DS18B20;23610;59.380;24.642;2022-07-24T00:46:28;16.75
37772;DS18B20;23610;59.380;24.642;2022-07-24T00:51:33;16.69
37772;DS18B20;23610;59.380;24.642;2022-07-24T00:56:36;16.81
37772;DS18B20;23610;59.380;24.642;2022-07-24T01:01:40;16.88
37772;DS18B20;23610;59.380;24.642;2022-07-24T01:06:44;16.88
37772;DS18B20;23610;59.380;24.642;2022-07-24T01:11:47;16.81
37772;DS18B20;23610;59.380;24.642;2022-07-24T01:16:50;16.81
37772;DS18B20;23610;59.380;24.642;2022-07-24T01:21:54;16.81
37772;DS18B20;23610;59.380;24.642;2022-07-24T01:26:57;16.88
37772;DS18B20;23610;59.380;24.642;2022-07-24T01:32:00;16.81
37772;DS18B20;23610;59.380;24.642;2022-07-24T01:37:03;16.81
37772;DS18B20;23610;59.380;24.642;2022-07-24T01:42:06;16.81
37772;DS18B20;23610;59.380;24.642;2022-07-24T01:47:09;16.81
37772;DS18B20;23610;59.380;24.642;2022-07-24T01:52:12;16.81
37772;DS18B20;23610;59.380;24.642;2022-07-24T01:57:15;16.75
37772;DS18B20;23610;59.380;24.642;2022-07-24T02:02:21;16.75
37772;DS18B20;23610;59.380;24.642;2022-07-24T02:07:24;16.75
37772;DS18B20;23610;59.380;24.642;2022-07-24T02:12:27;16.69
37772;DS18B20;23610;59.380;24.642;2022-07-24T02:17:30;16.69
37772;DS18B20;23610;59.380;24.642;2022-07-24T02:22:32;16.69
37772;DS18B20;23610;59.380;24.642;2022-07-24T02:27:36;16.69
37772;DS18B20;23610;59.380;24.642;2022-07-24T02:32:39;16.75
37772;DS18B20;23610;59.380;24.642;2022-07-24T02:37:44;16.69
37772;DS18B20;23610;59.380;24.642;2022-07-24T02:42:47;16.75
37772;DS18B20;23610;59.380;24.642;2022-07-24T02:47:55;16.69
37772;DS18B20;23610;59.380;24.642;2022-07-24T02:52:58;16.75
37772;DS18B20;23610;59.380;24.642;2022-07-24T02:58:01;16.63
37772;DS18B20;23610;59.380;24.642;2022-07-24T03:03:04;16.56
37772;DS18B20;23610;59.380;24.642;2022-07-24T03:08:07;16.75
37772;DS18B20;23610;59.380;24.642;2022-07-24T03:13:09;16.69
37772;DS18B20;23610;59.380;24.642;2022-07-24T03:18:12;16.75
37772;DS18B20;23610;59.380;24.642;2022-07-24T03:23:23;16.75
37772;DS18B20;23610;59.380;24.642;2022-07-24T03:28:26;16.75
37772;DS18B20;23610;59.380;24.642;2022-07-24T03:33:28;16.69
37772;DS18B20;23610;59.380;24.642;2022-07-24T03:38:31;16.75
37772;DS18B20;23610;59.380;24.642;2022-07-24T03:43:34;16.81
37772;DS18B20;23610;59.380;24.642;2022-07-24T03:48:37;16.88
37772;DS18B20;23610;59.380;24.642;2022-07-24T03:53:39;16.94
37772;DS18B20;23610;59.380;24.642;2022-07-24T03:58:43;16.94
37772;DS18B20;23610;59.380;24.642;2022-07-24T04:03:45;16.94
37772;DS18B20;23610;59.380;24.642;2022-07-24T04:08:48;17.06
37772;DS18B20;23610;59.380;24.642;2022-07-24T04:13:50;17.19
37772;DS18B20;23610;59.380;24.642;2022-07-24T04:18:53;17.13
37772;DS18B20;23610;59.380;24.642;2022-07-24T04:23:56;17.13
37772;DS18B20;23610;59.380;24.642;2022-07-24T04:28:58;17.19
37772;DS18B20;23610;59.380;24.642;2022-07-24T04:34:01;17.19
37772;DS18B20;23610;59.380;24.642;2022-07-24T04:39:09;17.38
37772;DS18B20;23610;59.380;24.642;2022-07-24T04:44:12;17.44
37772;DS18B20;23610;59.380;24.642;2022-07-24T04:49:15;17.56
37772;DS18B20;23610;59.380;24.642;2022-07-24T04:54:17;17.63
37772;DS18B20;23610;59.380;24.642;2022-07-24T04:59:20;17.75
37772;DS18B20;23610;59.380;24.642;2022-07-24T05:04:23;17.75
37772;DS18B20;23610;59.380;24.642;2022-07-24T05:09:25;17.75
37772;DS18B20;23610;59.380;24.642;2022-07-24T05:14:28;17.88
37772;DS18B20;23610;59.380;24.642;2022-07-24T05:19:31;17.81
37772;DS18B20;23610;59.380;24.642;2022-07-24T05:24:33;17.94
37772;DS18B20;23610;59.380;24.642;2022-07-24T05:29:36;18.06
37772;DS18B20;23610;59.380;24.642;2022-07-24T05:34:43;18.25
37772;DS18B20;23610;59.380;24.642;2022-07-24T05:39:45;18.38
37772;DS18B20;23610;59.380;24.642;2022-07-24T05:44:58;18.44
37772;DS18B20;23610;59.380;24.642;2022-07-24T05:50:01;18.25
37772;DS18B20;23610;59.380;24.642;2022-07-24T05:55:05;18.19
37772;DS18B20;23610;59.380;24.642;2022-07-24T06:00:08;18.06
37772;DS18B20;23610;59.380;24.642;2022-07-24T06:05:19;18.13
37772;DS18B20;23610;59.380;24.642;2022-07-24T06:10:21;18.13
37772;DS18B20;23610;59.380;24.642;2022-07-24T06:15:27;18.06
37772;DS18B20;23610;59.380;24.642;2022-07-24T06:20:31;18.06
37772;DS18B20;23610;59.380;24.642;2022-07-24T06:25:33;18.38
37772;DS18B20;23610;59.380;24.642;2022-07-24T06:30:36;18.56
37772;DS18B20;23610;59.380;24.642;2022-07-24T06:35:39;18.81
37772;DS18B20;23610;59.380;24.642;2022-07-24T06:40:42;18.94
37772;DS18B20;23610;59.380;24.642;2022-07-24T06:45:44;19.06
37772;DS18B20;23610;59.380;24.642;2022-07-24T06:50:47;19.06
37772;DS18B20;23610;59.380;24.642;2022-07-24T06:55:50;19.13
37772;DS18B20;23610;59.380;24.642;2022-07-24T07:00:55;19.13
37772;DS18B20;23610;59.380;24.642;2022-07-24T07:05:58;19.19
37772;DS18B20;23610;59.380;24.642;2022-07-24T07:11:01;19.63
37772;DS18B20;23610;59.380;24.642;2022-07-24T07:16:04;19.94
37772;DS18B20;23610;59.380;24.642;2022-07-24T07:21:07;20.13
37772;DS18B20;23610;59.380;24.642;2022-07-24T07:26:09;20.31
37772;DS18B20;23610;59.380;24.642;2022-07-24T07:31:12;20.13
37772;DS18B20;23610;59.380;24.642;2022-07-24T07:36:14;20.06
37772;DS18B20;23610;59.380;24.642;2022-07-24T07:41:17;19.88
37772;DS18B20;23610;59.380;24.642;2022-07-24T07:46:21;19.69
37772;DS18B20;23610;59.380;24.642;2022-07-24T07:51:24;19.75
37772;DS18B20;23610;59.380;24.642;2022-07-24T07:56:27;20.19
37772;DS18B20;23610;59.380;24.642;2022-07-24T08:01:33;20.25
37772;DS18B20;23610;59.380;24.642;2022-07-24T08:06:36;20.13
37772;DS18B20;23610;59.380;24.642;2022-07-24T08:11:38;20.06
37772;DS18B20;23610;59.380;24.642;2022-07-24T08:16:41;20.25
37772;DS18B20;23610;59.380;24.642;2022-07-24T08:21:43;20.38
37772;DS18B20;23610;59.380;24.642;2022-07-24T08:26:49;20.31
37772;DS18B20;23610;59.380;24.642;2022-07-24T08:31:51;20.00
37772;DS18B20;23610;59.380;24.642;2022-07-24T08:36:54;19.69
37772;DS18B20;23610;59.380;24.642;2022-07-24T08:41:57;19.44
37772;DS18B20;23610;59.380;24.642;2022-07-24T08:47:00;19.19
37772;DS18B20;23610;59.380;24.642;2022-07-24T08:52:05;19.00
37772;DS18B20;23610;59.380;24.642;2022-07-24T08:57:10;19.00
37772;DS18B20;23610;59.380;24.642;2022-07-24T09:02:13;19.25
37772;DS18B20;23610;59.380;24.642;2022-07-24T09:07:19;19.50
37772;DS18B20;23610;59.380;24.642;2022-07-24T09:12:25;19.88
37772;DS18B20;23610;59.380;24.642;2022-07-24T09:17:27;19.75
37772;DS18B20;23610;59.380;24.642;2022-07-24T09:22:33;19.31
37772;DS18B20;23610;59.380;24.642;2022-07-24T09:27:53;19.06
37772;DS18B20;23610;59.380;24.642;2022-07-24T09:33:04;19.06
37772;DS18B20;23610;59.380;24.642;2022-07-24T09:38:10;19.19
37772;DS18B20;23610;59.380;24.642;2022-07-24T09:43:31;19.19
37772;DS18B20;23610;59.380;24.642;2022-07-24T09:48:48;19.19
37772;DS18B20;23610;59.380;24.642;2022-07-24T09:53:58;19.31
37772;DS18B20;23610;59.380;24.642;2022-07-24T09:59:02;19.81
37772;DS18B20;23610;59.380;24.642;2022-07-24T10:04:10;20.13
37772;DS18B20;23610;59.380;24.642;2022-07-24T10:09:18;20.06
37772;DS18B20;23610;59.380;24.642;2022-07-24T10:14:24;20.19
37772;DS18B20;23610;59.380;24.642;2022-07-24T10:19:55;20.06
37772;DS18B20;23610;59.380;24.642;2022-07-24T10:25:06;20.00
37772;DS18B20;23610;59.380;24.642;2022-07-24T10:30:11;20.13
37772;DS18B20;23610;59.380;24.642;2022-07-24T10:35:24;20.31
37772;DS18B20;23610;59.380;24.642;2022-07-24T10:40:44;20.19
37772;DS18B20;23610;59.380;24.642;2022-07-24T11:01:33;20.06
37772;DS18B20;23610;59.380;24.642;2022-07-24T11:16:57;19.75
37772;DS18B20;23610;59.380;24.642;2022-07-24T11:22:05;19.25
37772;DS18B20;23610;59.380;24.642;2022-07-24T11:27:16;19.00
37772;DS18B20;23610;59.380;24.642;2022-07-24T11:32:19;18.88
37772;DS18B20;23610;59.380;24.642;2022-07-24T11:37:23;18.81
37772;DS18B20;23610;59.380;24.642;2022-07-24T11:42:37;19.00
37772;DS18B20;23610;59.380;24.642;2022-07-24T11:47:40;19.06
37772;DS18B20;23610;59.380;24.642;2022-07-24T11:52:42;19.25
37772;DS18B20;23610;59.380;24.642;2022-07-24T11:57:49;19.44
37772;DS18B20;23610;59.380;24.642;2022-07-24T12:03:12;19.75
37772;DS18B20;23610;59.380;24.642;2022-07-24T12:08:22;19.44
37772;DS18B20;23610;59.380;24.642;2022-07-24T12:13:31;19.38
37772;DS18B20;23610;59.380;24.642;2022-07-24T12:18:34;19.50
37772;DS18B20;23610;59.380;24.642;2022-07-24T12:23:38;19.50
37772;DS18B20;23610;59.380;24.642;2022-07-24T12:28:41;19.38
37772;DS18B20;23610;59.380;24.642;2022-07-24T12:33:53;19.19
37772;DS18B20;23610;59.380;24.642;2022-07-24T12:38:57;19.31
37772;DS18B20;23610;59.380;24.642;2022-07-24T12:44:05;19.06
37772;DS18B20;23610;59.380;24.642;2022-07-24T12:59:35;19.38
37772;DS18B20;23610;59.380;24.642;2022-07-24T13:04:49;19.50
37772;DS18B20;23610;59.380;24.642;2022-07-24T13:09:53;19.50
37772;DS18B20;23610;59.380;24.642;2022-07-24T13:14:58;19.50
37772;DS18B20;23610;59.380;24.642;2022-07-24T13:20:01;19.50
37772;DS18B20;23610;59.380;24.642;2022-07-24T13:25:05;19.38
37772;DS18B20;23610;59.380;24.642;2022-07-24T13:30:08;19.19
37772;DS18B20;23610;59.380;24.642;2022-07-24T13:35:11;18.81
37772;DS18B20;23610;59.380;24.642;2022-07-24T13:40:14;18.81
37772;DS18B20;23610;59.380;24.642;2022-07-24T13:45:17;18.88
37772;DS18B20;23610;59.380;24.642;2022-07-24T13:50:19;18.94
37772;DS18B20;23610;59.380;24.642;2022-07-24T13:55:23;18.94
37772;DS18B20;23610;59.380;24.642;2022-07-24T14:00:25;18.88
37772;DS18B20;23610;59.380;24.642;2022-07-24T14:05:28;18.81
37772;DS18B20;23610;59.380;24.642;2022-07-24T14:10:31;18.75
37772;DS18B20;23610;59.380;24.642;2022-07-24T14:15:35;18.69
37772;DS18B20;23610;59.380;24.642;2022-07-24T14:20:38;18.69
37772;DS18B20;23610;59.380;24.642;2022-07-24T14:25:42;18.50
37772;DS18B20;23610;59.380;24.642;2022-07-24T14:30:45;18.56
37772;DS18B20;23610;59.380;24.642;2022-07-24T14:35:48;18.38
37772;DS18B20;23610;59.380;24.642;2022-07-24T14:40:51;18.31
37772;DS18B20;23610;59.380;24.642;2022-07-24T14:45:54;18.31
37772;DS18B20;23610;59.380;24.642;2022-07-24T14:50:57;18.38
37772;DS18B20;23610;59.380;24.642;2022-07-24T14:56:00;18.44
37772;DS18B20;23610;59.380;24.642;2022-07-24T15:01:03;18.50
37772;DS18B20;23610;59.380;24.642;2022-07-24T15:06:07;18.44
37772;DS18B20;23610;59.380;24.642;2022-07-24T15:11:11;18.56
37772;DS18B20;23610;59.380;24.642;2022-07-24T15:16:15;18.44
37772;DS18B20;23610;59.380;24.642;2022-07-24T15:21:18;18.50
37772;DS18B20;23610;59.380;24.642;2022-07-24T15:26:21;18.69
37772;DS18B20;23610;59.380;24.642;2022-07-24T15:31:24;19.06
37772;DS18B20;23610;59.380;24.642;2022-07-24T15:36:28;19.50
37772;DS18B20;23610;59.380;24.642;2022-07-24T15:41:31;19.75
37772;DS18B20;23610;59.380;24.642;2022-07-24T15:46:35;19.63
37772;DS18B20;23610;59.380;24.642;2022-07-24T15:51:41;19.50
37772;DS18B20;23610;59.380;24.642;2022-07-24T15:56:43;19.50
37772;DS18B20;23610;59.380;24.642;2022-07-24T16:01:47;19.75
37772;DS18B20;23610;59.380;24.642;2022-07-24T16:06:50;19.63
37772;DS18B20;23610;59.380;24.642;2022-07-24T16:11:53;19.63
37772;DS18B20;23610;59.380;24.642;2022-07-24T16:16:57;19.50
37772;DS18B20;23610;59.380;24.642;2022-07-24T16:22:01;19.44
37772;DS18B20;23610;59.380;24.642;2022-07-24T16:27:04;19.50
37772;DS18B20;23610;59.380;24.642;2022-07-24T16:32:08;19.75
37772;DS18B20;23610;59.380;24.642;2022-07-24T16:37:11;19.69
37772;DS18B20;23610;59.380;24.642;2022-07-24T16:42:14;19.38
37772;DS18B20;23610;59.380;24.642;2022-07-24T16:47:18;19.25
37772;DS18B20;23610;59.380;24.642;2022-07-24T16:52:22;19.06
37772;DS18B20;23610;59.380;24.642;2022-07-24T16:57:46;18.81
37772;DS18B20;23610;59.380;24.642;2022-07-24T17:02:49;18.63
37772;DS18B20;23610;59.380;24.642;2022-07-24T17:07:52;18.63
37772;DS18B20;23610;59.380;24.642;2022-07-24T17:13:00;18.56
37772;DS18B20;23610;59.380;24.642;2022-07-24T17:18:04;18.56
37772;DS18B20;23610;59.380;24.642;2022-07-24T17:23:12;18.44
37772;DS18B20;23610;59.380;24.642;2022-07-24T17:28:16;18.56
37772;DS18B20;23610;59.380;24.642;2022-07-24T17:33:20;18.50
37772;DS18B20;23610;59.380;24.642;2022-07-24T17:38:25;18.44
37772;DS18B20;23610;59.380;24.642;2022-07-24T17:43:29;18.44
37772;DS18B20;23610;59.380;24.642;2022-07-24T17:48:33;18.44
37772;DS18B20;23610;59.380;24.642;2022-07-24T17:53:36;18.31
37772;DS18B20;23610;59.380;24.642;2022-07-24T17:58:39;18.31
37772;DS18B20;23610;59.380;24.642;2022-07-24T18:03:42;18.38
37772;DS18B20;23610;59.380;24.642;2022-07-24T18:08:48;18.31
37772;DS18B20;23610;59.380;24.642;2022-07-24T18:13:51;18.25
37772;DS18B20;23610;59.380;24.642;2022-07-24T18:18:55;18.25
37772;DS18B20;23610;59.380;24.642;2022-07-24T18:23:58;18.19
37772;DS18B20;23610;59.380;24.642;2022-07-24T18:29:02;18.06
37772;DS18B20;23610;59.380;24.642;2022-07-24T18:34:06;17.88
37772;DS18B20;23610;59.380;24.642;2022-07-24T18:39:09;17.75
37772;DS18B20;23610;59.380;24.642;2022-07-24T18:44:12;17.63
37772;DS18B20;23610;59.380;24.642;2022-07-24T18:49:15;17.56
37772;DS18B20;23610;59.380;24.642;2022-07-24T18:54:24;17.50
37772;DS18B20;23610;59.380;24.642;2022-07-24T18:59:27;17.56
37772;DS18B20;23610;59.380;24.642;2022-07-24T19:04:30;17.50
37772;DS18B20;23610;59.380;24.642;2022-07-24T19:09:33;17.50
37772;DS18B20;23610;59.380;24.642;2022-07-24T19:14:37;17.50
37772;DS18B20;23610;59.380;24.642;2022-07-24T19:19:40;17.44
37772;DS18B20;23610;59.380;24.642;2022-07-24T19:24:44;17.44
37772;DS18B20;23610;59.380;24.642;2022-07-24T19:30:06;17.44
37772;DS18B20;23610;59.380;24.642;2022-07-24T19:35:09;17.38
37772;DS18B20;23610;59.380;24.642;2022-07-24T19:40:13;17.38
37772;DS18B20;23610;59.380;24.642;2022-07-24T19:45:17;17.31
37772;DS18B20;23610;59.380;24.642;2022-07-24T19:55:57;17.25
37772;DS18B20;23610;59.380;24.642;2022-07-24T20:01:00;17.25
37772;DS18B20;23610;59.380;24.642;2022-07-24T20:06:03;17.19
37772;DS18B20;23610;59.380;24.642;2022-07-24T20:11:05;17.19
37772;DS18B20;23610;59.380;24.642;2022-07-24T20:16:08;17.25
37772;DS18B20;23610;59.380;24.642;2022-07-24T20:21:11;17.25
37772;DS18B20;23610;59.380;24.642;2022-07-24T20:26:15;17.19
37772;DS18B20;23610;59.380;24.642;2022-07-24T20:31:18;17.25
37772;DS18B20;23610;59.380;24.642;2022-07-24T20:36:20;17.19
37772;DS18B20;23610;59.380;24.642;2022-07-24T20:41:23;17.25
37772;DS18B20;23610;59.380;24.642;2022-07-24T20:46:26;17.19
37772;DS18B20;23610;59.380;24.642;2022-07-24T20:51:29;17.25
37772;DS18B20;23610;59.380;24.642;2022-07-24T20:56:32;17.19
37772;DS18B20;23610;59.380;24.642;2022-07-24T21:01:35;17.25
37772;DS18B20;23610;59.380;24.642;2022-07-24T21:06:38;17.19
37772;DS18B20;23610;59.380;24.642;2022-07-24T21:11:40;17.19
37772;DS18B20;23610;59.380;24.642;2022-07-24T21:16:43;17.06
37772;DS18B20;23610;59.380;24.642;2022-07-24T21:21:46;17.00
37772;DS18B20;23610;59.380;24.642;2022-07-24T21:26:48;16.94
37772;DS18B20;23610;59.380;24.642;2022-07-24T21:31:51;17.00
37772;DS18B20;23610;59.380;24.642;2022-07-24T21:36:54;16.81
37772;DS18B20;23610;59.380;24.642;2022-07-24T21:41:56;16.75
37772;DS18B20;23610;59.380;24.642;2022-07-24T21:46:59;16.75
37772;DS18B20;23610;59.380;24.642;2022-07-24T21:52:02;16.81
37772;DS18B20;23610;59.380;24.642;2022-07-24T21:57:04;16.81
37772;DS18B20;23610;59.380;24.642;2022-07-24T22:02:07;16.81
37772;DS18B20;23610;59.380;24.642;2022-07-24T22:07:09;16.75
37772;DS18B20;23610;59.380;24.642;2022-07-24T22:12:12;16.81
37772;DS18B20;23610;59.380;24.642;2022-07-24T22:17:15;16.81
37772;DS18B20;23610;59.380;24.642;2022-07-24T22:22:19;16.81
37772;DS18B20;23610;59.380;24.642;2022-07-24T22:27:21;16.94
37772;DS18B20;23610;59.380;24.642;2022-07-24T22:32:24;16.94
37772;DS18B20;23610;59.380;24.642;2022-07-24T22:37:29;16.88
37772;DS18B20;23610;59.380;24.642;2022-07-24T22:42:35;16.94
37772;DS18B20;23610;59.380;24.642;2022-07-24T22:47:43;17.00
37772;DS18B20;23610;59.380;24.642;2022-07-24T22:52:46;17.00
37772;DS18B20;23610;59.380;24.642;2022-07-24T22:57:49;17.00
37772;DS18B20;23610;59.380;24.642;2022-07-24T23:02:52;17.00
37772;DS18B20;23610;59.380;24.642;2022-07-24T23:07:55;17.06
37772;DS18B20;23610;59.380;24.642;2022-07-24T23:12:57;17.06
37772;DS18B20;23610;59.380;24.642;2022-07-24T23:18:05;17.00
37772;DS18B20;23610;59.380;24.642;2022-07-24T23:23:11;16.94
37772;DS18B20;23610;59.380;24.642;2022-07-24T23:28:14;17.00
37772;DS18B20;23610;59.380;24.642;2022-07-24T23:33:16;17.00
37772;DS18B20;23610;59.380;24.642;2022-07-24T23:38:19;17.00
37772;DS18B20;23610;59.380;24.642;2022-07-24T23:43:22;17.00
37772;DS18B20;23610;59.380;24.642;2022-07-24T23:48:24;17.06
37772;DS18B20;23610;59.380;24.642;2022-07-24T23:53:29;17.06
37772;DS18B20;23610;59.380;24.642;2022-07-24T23:58:32;17.00
